Time;durP1;ratioP1;P1;durP2;ratioP2;P2;SDS_P1;SDS_P2;PMS_P1;PMS_P2;Temp;Humidity;BMP_temperature;BMP_pressure;BME280_temperature;BME280_humidity;BME280_pressure;Samples;Min_cycle;Max_cycle;Signal;HPM_P1;HPM_P2
2022/07/07 00:01:25;;;;;;;70.20;33.30;;;;;;;20.60;78.09;99331.84;4908535;29;20144;-71
2022/07/07 00:03:51;;;;;;;70.57;34.40;;;;;;;20.61;78.47;99327.13;4912416;29;20048;-72
2022/07/07 00:06:17;;;;;;;70.63;34.53;;;;;;;20.58;78.25;99319.47;4910478;29;20056;-70
2022/07/07 00:08:44;;;;;;;73.90;34.78;;;;;;;20.58;78.12;99325.03;4910107;29;20047;-72
2022/07/07 00:11:10;;;;;;;63.85;33.03;;;;;;;20.56;78.22;99319.84;4909575;29;20119;-71
2022/07/07 00:13:38;;;;;;;65.22;33.47;;;;;;;20.56;78.05;99317.06;4906500;29;20052;-72
2022/07/07 00:16:04;;;;;;;63.10;32.70;;;;;;;20.58;78.46;99316.69;4909057;29;20596;-71
2022/07/07 00:18:30;;;;;;;67.80;34.63;;;;;;;20.60;78.32;99317.97;4923170;29;20148;-72
2022/07/07 00:20:56;;;;;;;64.90;33.85;;;;;;;20.59;77.82;99319.13;4907802;29;20147;-72
2022/07/07 00:23:22;;;;;;;70.22;34.45;;;;;;;20.58;78.08;99319.47;4911734;29;20040;-71
2022/07/07 00:25:48;;;;;;;66.50;33.80;;;;;;;20.54;78.11;99309.09;4910956;29;20059;-72
2022/07/07 00:28:14;;;;;;;75.93;34.78;;;;;;;20.52;78.31;99310.59;4908723;29;20058;-72
2022/07/07 00:30:42;;;;;;;65.75;35.20;;;;;;;20.50;78.81;99324.84;4925027;29;20144;-72
2022/07/07 00:33:08;;;;;;;73.68;35.75;;;;;;;20.49;78.40;99323.22;4923912;29;20163;-71
2022/07/07 00:35:34;;;;;;;78.47;35.63;;;;;;;20.46;78.31;99321.16;4911695;29;20052;-71
2022/07/07 00:38:00;;;;;;;65.00;35.60;;;;;;;20.41;78.72;99321.41;4907632;29;20047;-71
2022/07/07 00:40:26;;;;;;;64.00;34.35;;;;;;;20.41;78.82;99326.94;4921374;29;20108;-71
2022/07/07 00:42:53;;;;;;;63.03;35.33;;;;;;;20.38;78.97;99325.72;4909487;29;20451;-71
2022/07/07 00:45:19;;;;;;;63.10;37.08;;;;;;;20.37;78.56;99320.50;4910160;29;20048;-71
2022/07/07 00:47:47;;;;;;;69.63;35.15;;;;;;;20.37;78.91;99313.00;4910920;29;20084;-71
2022/07/07 00:50:13;;;;;;;70.07;37.45;;;;;;;20.35;78.34;99312.50;4905302;29;20055;-72
2022/07/07 00:52:39;;;;;;;65.93;35.58;;;;;;;20.35;78.24;99311.72;4910982;29;20144;-72
2022/07/07 00:55:08;;;;;;;75.97;35.80;;;;;;;20.37;78.24;99323.28;4913240;29;20143;-72
2022/07/07 00:57:34;;;;;;;61.35;35.00;;;;;;;20.39;78.01;99320.94;4906508;29;20159;-72
2022/07/07 01:00:05;;;;;;;85.85;36.85;;;;;;;20.38;78.05;99320.16;4909107;29;20074;-72
2022/07/07 01:02:32;;;;;;;57.75;35.20;;;;;;;20.37;78.13;99315.78;4909300;29;20146;-72
2022/07/07 01:05:01;;;;;;;67.85;36.03;;;;;;;20.36;78.71;99318.88;4910640;29;20060;-71
2022/07/07 01:07:30;;;;;;;59.15;35.42;;;;;;;20.34;78.78;99316.44;4924631;29;20052;-72
2022/07/07 01:09:57;;;;;;;71.00;35.33;;;;;;;20.33;78.20;99322.38;4909014;29;20048;-72
2022/07/07 01:12:23;;;;;;;64.80;35.13;;;;;;;;;;4908812;29;20515;-73
2022/07/07 01:14:50;;;;;;;78.10;36.60;;;;;;;20.32;78.16;99323.53;4906736;29;20547;-72
2022/07/07 01:17:16;;;;;;;71.70;35.90;;;;;;;20.30;78.94;99329.44;4909579;29;20079;-72
2022/07/07 01:19:42;;;;;;;80.00;35.78;;;;;;;20.29;78.80;99321.44;4906636;29;20048;-72
2022/07/07 01:22:13;;;;;;;68.45;34.95;;;;;;;20.30;78.60;99323.09;4910895;29;20051;-72
2022/07/07 01:24:41;;;;;;;72.72;34.20;;;;;;;20.33;78.05;99327.94;4908698;29;20099;-72
2022/07/07 01:27:08;;;;;;;70.53;35.08;;;;;;;20.33;78.49;99320.38;4907512;29;20052;-72
2022/07/07 01:29:36;;;;;;;66.75;34.20;;;;;;;20.35;78.31;99320.03;4908906;29;20119;-72
2022/07/07 01:32:04;;;;;;;59.40;32.70;;;;;;;20.35;77.75;99323.63;4909733;29;20530;-71
2022/07/07 01:34:30;;;;;;;58.15;34.60;;;;;;;20.35;78.33;99325.59;4923681;29;20063;-71
2022/07/07 01:36:56;;;;;;;59.63;32.92;;;;;;;20.35;78.34;99315.28;4908413;29;20218;-72
2022/07/07 01:39:22;;;;;;;62.72;33.25;;;;;;;20.36;77.79;99316.09;4909270;29;20059;-71
2022/07/07 01:41:49;;;;;;;59.33;32.17;;;;;;;20.38;77.52;99322.94;4908577;29;20111;-73
2022/07/07 01:44:15;;;;;;;;;;;;;;;20.39;77.36;99323.72;4907761;29;20493;-71
2022/07/07 01:46:41;;;;;;;67.40;32.67;;;;;;;20.44;76.59;99326.25;4908823;29;19966;-71
2022/07/07 01:49:07;;;;;;;58.33;31.85;;;;;;;20.46;76.35;99329.50;4906406;29;20059;-70
2022/07/07 01:51:33;;;;;;;62.17;31.48;;;;;;;20.50;76.54;99326.81;4907890;29;20050;-71
2022/07/07 01:53:59;;;;;;;57.53;31.65;;;;;;;20.49;76.14;99322.41;4909908;29;20088;-71
2022/07/07 01:56:25;;;;;;;60.50;31.48;;;;;;;20.49;76.12;99314.91;4908336;29;20160;-69
2022/07/07 01:58:53;;;;;;;51.03;30.25;;;;;;;20.51;76.15;99314.53;4908769;29;20044;-70
2022/07/07 02:01:19;;;;;;;56.40;30.40;;;;;;;20.52;75.99;99310.59;4908560;29;20059;-71
2022/07/07 02:03:45;;;;;;;52.42;30.70;;;;;;;20.52;76.18;99308.63;4909486;29;20472;-70
2022/07/07 02:06:11;;;;;;;58.80;31.13;;;;;;;20.52;76.11;99319.75;4905042;29;20063;-70
2022/07/07 02:08:37;;;;;;;53.20;30.98;;;;;;;20.53;75.87;99309.47;4905141;29;20397;-70
2022/07/07 02:11:12;;;;;;;57.67;30.63;;;;;;;20.54;75.97;99311.06;4909219;29;20080;-70
2022/07/07 02:13:38;;;;;;;51.30;30.77;;;;;;;20.55;75.76;99307.91;4907656;29;20044;-71
2022/07/07 02:16:26;;;;;;;54.60;29.90;;;;;;;20.58;75.21;99317.53;4907583;29;20622;-71
2022/07/07 02:18:54;;;;;;;64.70;30.27;;;;;;;20.59;75.18;99310.81;4890096;29;20053;-72
2022/07/07 02:21:21;;;;;;;48.67;28.52;;;;;;;20.60;74.86;99320.75;4886968;29;20049;-73
2022/07/07 02:23:49;;;;;;;56.35;28.38;;;;;;;20.63;74.78;99316.47;4906400;29;20055;-72
2022/07/07 02:26:15;;;;;;;50.30;27.83;;;;;;;20.65;74.26;99322.47;4897094;29;20044;-72
2022/07/07 02:28:41;;;;;;;46.55;27.55;;;;;;;20.68;74.32;99319.78;4908793;29;20048;-71
2022/07/07 02:31:09;;;;;;;46.28;24.80;;;;;;;20.71;73.52;99315.47;4908826;29;20516;-72
2022/07/07 02:33:37;;;;;;;42.20;25.63;;;;;;;20.76;73.35;99319.97;4908336;29;20377;-73
2022/07/07 02:36:04;;;;;;;51.20;26.75;;;;;;;20.81;72.96;99309.44;4924163;29;20060;-70
2022/07/07 02:38:30;;;;;;;54.92;27.02;;;;;;;20.84;72.92;99316.28;4906516;29;20078;-71
2022/07/07 02:40:56;;;;;;;50.77;25.83;;;;;;;20.86;73.06;99313.94;4892940;29;20587;-71
2022/07/07 02:43:23;;;;;;;47.45;26.10;;;;;;;20.90;72.79;99306.50;4908075;29;20167;-70
2022/07/07 02:45:50;;;;;;;46.47;25.77;;;;;;;20.93;72.88;99311.34;4908941;29;20056;-71
2022/07/07 02:48:18;;;;;;;49.03;25.58;;;;;;;20.97;72.76;99305.88;4906458;29;20139;-72
2022/07/07 02:50:46;;;;;;;49.60;25.20;;;;;;;21.03;72.07;99317.53;4903115;29;20052;-71
2022/07/07 02:53:13;;;;;;;48.10;24.80;;;;;;;21.09;72.02;99324.44;4908643;29;20397;-69
2022/07/07 02:55:45;;;;;;;41.33;23.90;;;;;;;21.14;71.63;99329.72;4909483;29;20441;-69
2022/07/07 02:58:13;;;;;;;46.20;24.08;;;;;;;21.18;71.13;99336.19;4908604;29;20081;-71
2022/07/07 03:00:40;;;;;;;44.00;24.35;;;;;;;21.24;70.84;99337.53;4908430;29;20139;-71
2022/07/07 03:03:07;;;;;;;;;;;;;;;21.29;70.67;99333.69;4909140;29;20048;-70
2022/07/07 03:05:34;;;;;;;48.80;24.20;;;;;;;21.32;70.60;99335.72;4892627;29;20131;-72
2022/07/07 03:08:02;;;;;;;39.97;23.50;;;;;;;21.35;70.37;99348.13;4909479;29;20108;-71
2022/07/07 03:10:28;;;;;;;40.92;22.08;;;;;;;21.34;70.36;99352.06;4893611;29;20064;-71
2022/07/07 03:12:54;;;;;;;43.38;22.83;;;;;;;21.36;70.24;99349.72;4895019;29;20048;-71
2022/07/07 03:15:20;;;;;;;43.20;23.58;;;;;;;21.42;69.99;99344.72;4928944;29;20327;-71
2022/07/07 03:17:49;;;;;;;39.30;23.65;;;;;;;21.52;69.33;99346.94;4910627;29;20484;-72
2022/07/07 03:20:16;;;;;;;44.63;22.80;;;;;;;21.59;69.20;99347.13;4912027;29;20508;-71
2022/07/07 03:22:42;;;;;;;;;;;;;;;21.70;68.64;99341.84;4928694;29;20554;-72
2022/07/07 03:25:11;;;;;;;56.17;26.27;;;;;;;21.81;68.42;99344.84;4914949;29;19931;-72
2022/07/07 03:27:37;;;;;;;39.85;22.58;;;;;;;21.91;67.81;99344.31;4914330;29;20671;-72
2022/07/07 03:30:05;;;;;;;51.35;23.42;;;;;;;22.01;67.72;99337.38;4914675;29;20487;-72
2022/07/07 03:32:32;;;;;;;41.90;23.33;;;;;;;22.09;67.07;99343.88;4912673;29;20526;-72
2022/07/07 03:34:58;;;;;;;45.10;22.92;;;;;;;22.09;67.35;99344.72;4912071;29;20142;-72
2022/07/07 03:37:25;;;;;;;39.55;21.30;;;;;;;22.16;67.02;99344.03;4911629;29;20111;-72
2022/07/07 03:39:51;;;;;;;34.35;22.17;;;;;;;22.22;66.57;99359.28;4913591;29;20480;-72
2022/07/07 03:42:18;;;;;;;45.53;23.23;;;;;;;22.26;66.71;99355.78;4911226;29;20051;-72
2022/07/07 03:44:45;;;;;;;47.40;23.75;;;;;;;22.27;66.36;99362.97;4913413;29;20473;-72
2022/07/07 03:47:14;;;;;;;52.38;22.73;;;;;;;22.33;66.18;99355.94;4928426;29;20440;-72
2022/07/07 03:49:40;;;;;;;42.03;23.50;;;;;;;22.45;65.97;99363.34;4912224;29;20063;-73
2022/07/07 03:52:06;;;;;;;38.88;21.48;;;;;;;22.58;65.69;99355.66;4913361;29;20052;-71
2022/07/07 03:54:32;;;;;;;33.50;22.15;;;;;;;22.61;65.23;99357.72;4912118;29;20059;-71
2022/07/07 03:56:58;;;;;;;37.72;22.15;;;;;;;22.66;65.10;99344.28;4913516;29;20567;-71
2022/07/07 03:59:26;;;;;;;35.20;21.67;;;;;;;22.75;65.24;99343.28;4912151;29;20074;-73
2022/07/07 04:01:52;;;;;;;49.60;21.58;;;;;;;22.85;64.84;99347.44;4925928;29;20548;-73
2022/07/07 04:04:18;;;;;;;37.90;22.70;;;;;;;22.91;64.60;99348.72;4896293;29;20154;-69
2022/07/07 04:06:44;;;;;;;49.13;23.80;;;;;;;22.95;64.45;99349.63;4910646;29;20082;-70
2022/07/07 04:09:10;;;;;;;35.47;21.33;;;;;;;23.04;64.06;99346.59;4909778;29;20075;-70
2022/07/07 04:11:37;;;;;;;38.15;22.13;;;;;;;23.03;63.87;99359.72;4909998;29;20142;-72
2022/07/07 04:14:03;;;;;;;42.47;21.55;;;;;;;23.01;63.52;99344.53;4909233;29;20047;-71
2022/07/07 04:16:31;;;;;;;36.03;21.17;;;;;;;22.90;63.73;99349.91;4911167;29;20058;-72
2022/07/07 04:18:57;;;;;;;39.47;21.75;;;;;;;22.91;63.72;99359.88;4892784;29;20493;-71
2022/07/07 04:21:23;;;;;;;36.10;21.67;;;;;;;22.92;64.11;99347.56;4910583;29;20056;-70
2022/07/07 04:23:49;;;;;;;36.85;21.10;;;;;;;23.05;63.52;99345.41;4907816;29;20092;-71
2022/07/07 04:26:15;;;;;;;40.15;21.70;;;;;;;23.19;63.36;99339.28;4908974;29;20056;-71
2022/07/07 04:28:41;;;;;;;47.70;21.10;;;;;;;23.37;62.81;99334.81;4909591;29;20231;-71
2022/07/07 04:31:07;;;;;;;36.95;21.02;;;;;;;23.55;62.44;99336.31;4909352;29;20048;-71
2022/07/07 04:33:35;;;;;;;37.22;21.35;;;;;;;23.67;61.98;99336.09;4924904;29;20587;-71
2022/07/07 04:36:01;;;;;;;38.80;20.88;;;;;;;23.77;61.51;99329.06;4924739;29;20076;-71
2022/07/07 04:38:27;;;;;;;42.65;21.60;;;;;;;23.91;61.46;99331.25;4907659;29;20520;-70
2022/07/07 04:40:53;;;;;;;36.38;20.45;;;;;;;23.99;61.18;99334.94;4909712;29;20044;-72
2022/07/07 04:43:20;;;;;;;39.75;20.85;;;;;;;24.06;60.97;99326.72;4907766;29;20527;-71
2022/07/07 04:45:46;;;;;;;42.08;20.67;;;;;;;24.15;60.45;99332.03;4906004;29;20063;-71
2022/07/07 04:48:12;;;;;;;43.33;20.65;;;;;;;24.25;60.27;99320.16;4905717;29;20126;-71
2022/07/07 04:50:39;;;;;;;39.72;20.00;;;;;;;24.29;59.84;99326.63;4908657;29;20047;-70
2022/07/07 04:53:06;;;;;;;39.97;20.00;;;;;;;24.25;59.85;99325.75;4910874;29;20528;-71
2022/07/07 04:55:33;;;;;;;36.03;19.13;;;;;;;24.25;59.95;99320.16;4878054;29;20055;-72
2022/07/07 04:57:59;;;;;;;39.03;19.80;;;;;;;24.32;59.25;99317.47;4907785;29;20044;-72
2022/07/07 05:00:25;;;;;;;44.22;19.30;;;;;;;24.47;59.25;99314.84;4907827;29;20343;-72
2022/07/07 05:02:51;;;;;;;35.33;18.97;;;;;;;24.60;58.87;99310.63;4911429;29;20044;-74
2022/07/07 05:05:17;;;;;;;34.97;19.17;;;;;;;24.72;58.23;99303.94;4908857;29;20112;-72
2022/07/07 05:07:45;;;;;;;32.08;19.42;;;;;;;24.73;58.52;99310.31;4908184;29;20132;-72
2022/07/07 05:10:11;;;;;;;36.13;18.88;;;;;;;24.69;58.59;99309.50;4923524;29;20052;-72
2022/07/07 05:12:37;;;;;;;39.45;19.27;;;;;;;24.72;58.75;99312.31;4912530;29;20465;-72
2022/07/07 05:15:04;;;;;;;39.40;20.05;;;;;;;24.59;59.39;99305.41;4912666;29;20119;-73
2022/07/07 05:17:29;;;;;;;;;;;;;;;24.52;59.38;99308.91;4910411;29;20052;-73
2022/07/07 05:19:56;;;;;;;34.50;19.13;;;;;;;24.67;59.21;99309.06;4925144;29;20354;-72
2022/07/07 05:22:22;;;;;;;40.72;18.83;;;;;;;24.81;58.67;99300.06;4908135;29;20065;-72
2022/07/07 05:24:49;;;;;;;35.60;18.50;;;;;;;24.90;58.12;99303.34;4909656;29;20082;-73
2022/07/07 05:27:15;;;;;;;31.20;18.33;;;;;;;24.95;57.88;99303.00;4924008;29;20251;-72
2022/07/07 05:29:41;;;;;;;39.47;18.63;;;;;;;25.06;57.78;99300.31;4922048;29;20599;-73
2022/07/07 05:32:08;;;;;;;37.13;20.65;;;;;;;25.15;57.77;99297.97;4909737;29;20052;-73
2022/07/07 05:34:34;;;;;;;39.67;20.10;;;;;;;25.25;57.56;99304.06;4910287;29;20103;-72
2022/07/07 05:37:00;;;;;;;41.60;21.23;;;;;;;25.40;56.94;99318.94;4910162;29;20413;-73
2022/07/07 05:39:28;;;;;;;47.90;21.23;;;;;;;25.46;56.47;99315.41;4902662;29;20095;-74
2022/07/07 05:41:56;;;;;;;36.22;19.42;;;;;;;25.44;56.50;99311.38;4908423;29;20144;-72
2022/07/07 05:44:22;;;;;;;44.17;19.15;;;;;;;25.44;57.12;99303.00;4910896;29;20055;-73
2022/07/07 05:46:48;;;;;;;33.50;17.65;;;;;;;25.34;57.27;99301.72;4892559;29;20048;-72
2022/07/07 05:49:14;;;;;;;35.47;18.85;;;;;;;25.25;57.20;99310.44;4909656;29;20056;-73
2022/07/07 05:51:39;;;;;;;35.60;18.73;;;;;;;25.09;57.79;99318.28;4912814;29;20573;-74
2022/07/07 05:54:05;;;;;;;37.28;18.77;;;;;;;24.86;58.47;99317.28;4907887;29;20147;-73
2022/07/07 05:56:32;;;;;;;34.58;18.88;;;;;;;24.75;59.00;99310.78;4904597;29;20497;-74
2022/07/07 05:58:59;;;;;;;41.85;21.63;;;;;;;24.70;59.53;99309.13;4907171;29;20386;-73
2022/07/07 06:01:25;;;;;;;36.30;19.20;;;;;;;24.75;59.34;99310.78;4909700;29;20052;-72
2022/07/07 06:03:51;;;;;;;32.20;18.23;;;;;;;24.81;59.19;99312.06;4907105;29;20513;-73
2022/07/07 06:06:17;;;;;;;36.67;19.75;;;;;;;24.89;58.45;99304.53;4908712;29;20595;-73
2022/07/07 06:08:43;;;;;;;42.13;19.02;;;;;;;24.98;58.50;99310.63;4906725;29;20044;-71
2022/07/07 06:11:10;;;;;;;33.45;17.95;;;;;;;25.09;58.04;99305.13;4908101;29;20060;-72
2022/07/07 06:13:36;;;;;;;40.83;18.88;;;;;;;25.19;57.31;99298.00;4908324;29;20060;-73
2022/07/07 06:16:04;;;;;;;33.80;18.23;;;;;;;25.28;57.07;99301.28;4916127;29;20079;-72
2022/07/07 06:18:30;;;;;;;45.25;18.88;;;;;;;25.35;56.32;99304.13;4896395;29;20048;-72
2022/07/07 06:20:58;;;;;;;37.42;18.63;;;;;;;25.40;55.81;99305.78;4906378;29;20050;-72
2022/07/07 06:23:25;;;;;;;31.90;18.02;;;;;;;25.39;56.17;99295.78;4905968;29;20056;-73
2022/07/07 06:25:51;;;;;;;48.70;18.57;;;;;;;25.56;56.26;99288.72;4904541;29;20633;-72
2022/07/07 06:28:17;;;;;;;47.00;18.80;;;;;;;25.82;56.13;99286.88;4908395;29;20048;-72
2022/07/07 06:30:43;;;;;;;39.30;17.63;;;;;;;26.11;55.81;99289.00;4908010;29;20048;-72
2022/07/07 06:33:10;;;;;;;34.80;17.90;;;;;;;26.32;55.49;99291.94;4907989;29;20040;-72
2022/07/07 06:35:36;;;;;;;41.25;16.50;;;;;;;26.42;53.77;99281.97;4911712;29;20055;-73
2022/07/07 06:38:03;;;;;;;38.20;16.77;;;;;;;26.56;53.54;99286.81;4908110;29;20052;-73
2022/07/07 06:40:29;;;;;;;30.97;16.10;;;;;;;26.64;52.19;99298.03;4909489;29;20056;-72
2022/07/07 06:42:55;;;;;;;29.13;15.25;;;;;;;26.53;52.10;99286.78;4909072;29;20111;-72
2022/07/07 06:45:29;;;;;;;37.65;16.35;;;;;;;26.46;52.03;99291.19;4907545;29;20052;-73
2022/07/07 06:47:55;;;;;;;35.83;17.05;;;;;;;26.38;52.49;99305.56;4910031;29;20044;-72
2022/07/07 06:50:22;;;;;;;43.92;15.65;;;;;;;26.36;51.94;99297.53;4913283;29;20048;-72
2022/07/07 06:52:48;;;;;;;35.70;16.00;;;;;;;26.47;51.64;99301.19;4896958;29;20139;-73
2022/07/07 06:55:14;;;;;;;33.13;17.23;;;;;;;26.56;51.87;99300.81;4912340;29;20056;-73
2022/07/07 06:57:40;;;;;;;36.78;16.83;;;;;;;26.82;52.09;99289.66;4912249;29;20059;-72
2022/07/07 07:00:08;;;;;;;35.38;16.95;;;;;;;27.07;51.53;99292.50;4910237;29;20048;-72
2022/07/07 07:02:41;;;;;;;42.10;17.42;;;;;;;27.11;51.94;99296.13;4913294;29;20048;-74
2022/07/07 07:05:07;;;;;;;30.90;17.00;;;;;;;27.25;51.15;99297.34;4930674;29;20058;-74
2022/07/07 07:07:34;;;;;;;38.78;16.13;;;;;;;27.31;50.20;99304.13;4914136;29;20090;-73
2022/07/07 07:10:01;;;;;;;26.27;15.73;;;;;;;27.32;49.48;99298.13;4911033;29;20048;-72
2022/07/07 07:12:27;;;;;;;30.35;15.25;;;;;;;27.29;48.11;99312.16;4912905;29;20431;-71
2022/07/07 07:14:53;;;;;;;27.58;14.40;;;;;;;27.32;48.24;99303.75;4911641;29;20047;-73
2022/07/07 07:17:19;;;;;;;34.63;14.80;;;;;;;27.44;47.63;99296.09;4911487;29;20052;-72
2022/07/07 07:19:45;;;;;;;27.87;14.20;;;;;;;27.53;47.19;99298.53;4910917;29;20072;-72
2022/07/07 07:22:11;;;;;;;27.83;14.90;;;;;;;27.67;46.58;99294.91;4911050;29;20512;-72
2022/07/07 07:24:39;;;;;;;30.50;13.77;;;;;;;27.86;45.75;99300.06;4912839;29;20055;-72
2022/07/07 07:27:05;;;;;;;30.52;13.98;;;;;;;27.88;45.19;99300.47;4913195;29;20052;-72
2022/07/07 07:29:32;;;;;;;20.95;13.02;;;;;;;27.84;45.11;99299.69;4913367;29;20135;-73
2022/07/07 07:31:58;;;;;;;29.13;14.50;;;;;;;27.93;45.12;99295.63;4910682;29;20044;-72
2022/07/07 07:34:24;;;;;;;26.27;14.30;;;;;;;28.01;45.24;99294.41;4915241;29;20079;-73
2022/07/07 07:36:50;;;;;;;43.42;15.32;;;;;;;28.34;44.59;99297.91;4913840;29;20052;-72
2022/07/07 07:39:16;;;;;;;29.80;14.77;;;;;;;28.66;44.21;99302.56;4912935;29;20469;-73
2022/07/07 07:41:46;;;;;;;40.30;15.47;;;;;;;28.78;44.34;99292.06;4924369;29;20056;-71
2022/07/07 07:44:12;;;;;;;37.83;15.43;;;;;;;29.00;44.28;99292.72;4910531;29;20048;-72
2022/07/07 07:46:38;;;;;;;34.38;15.65;;;;;;;29.27;43.31;99294.91;4911772;29;20055;-72
2022/07/07 07:49:06;;;;;;;29.88;15.15;;;;;;;29.24;43.74;99295.75;4911341;29;20043;-73
2022/07/07 07:51:32;;;;;;;29.08;16.50;;;;;;;29.35;43.59;99304.91;4907775;29;20044;-72
2022/07/07 07:53:58;;;;;;;31.10;15.77;;;;;;;29.42;42.75;99306.88;4909901;29;20360;-72
2022/07/07 07:56:24;;;;;;;30.92;15.48;;;;;;;29.48;42.52;99307.22;4912624;29;20489;-72
2022/07/07 07:58:52;;;;;;;32.88;14.57;;;;;;;29.52;41.24;99291.91;4912093;29;20059;-73
2022/07/07 08:01:18;;;;;;;31.05;14.23;;;;;;;29.55;40.95;99299.53;4907592;29;20048;-72
2022/07/07 08:03:44;;;;;;;30.83;14.07;;;;;;;29.64;40.44;99298.22;4911555;29;20048;-72
2022/07/07 08:06:10;;;;;;;32.43;14.87;;;;;;;29.82;39.70;99304.47;4910371;29;20138;-72
2022/07/07 08:08:36;;;;;;;28.43;15.93;;;;;;;29.80;40.31;99304.06;4909330;29;20437;-73
2022/07/07 08:11:02;;;;;;;34.73;14.47;;;;;;;29.95;40.10;99304.72;4910250;29;20595;-71
2022/07/07 08:13:28;;;;;;;35.70;15.10;;;;;;;30.08;39.49;99304.22;4927058;29;20139;-71
2022/07/07 08:15:55;;;;;;;28.10;14.90;;;;;;;30.26;39.37;99313.25;4911215;29;20091;-72
2022/07/07 08:18:21;;;;;;;34.45;14.82;;;;;;;30.36;39.02;99303.06;4912080;29;20492;-72
2022/07/07 08:20:47;;;;;;;23.50;14.40;;;;;;;30.58;39.01;99308.38;4911226;29;20056;-71
2022/07/07 08:23:13;;;;;;;28.17;15.23;;;;;;;30.59;38.31;99314.84;4924949;29;20587;-71
2022/07/07 08:25:40;;;;;;;38.80;15.07;;;;;;;30.70;38.73;99313.50;4907738;29;20048;-72
2022/07/07 08:28:07;;;;;;;31.13;15.27;;;;;;;30.85;37.36;99299.16;4911289;29;20080;-72
2022/07/07 08:30:33;;;;;;;24.35;14.98;;;;;;;30.94;37.15;99304.28;4911374;29;20461;-72
2022/07/07 08:33:00;;;;;;;29.13;14.57;;;;;;;31.17;37.21;99303.50;4910201;29;20080;-71
2022/07/07 08:35:26;;;;;;;28.70;15.00;;;;;;;31.56;36.84;99306.91;4911742;29;20342;-72
2022/07/07 08:37:52;;;;;;;29.05;16.40;;;;;;;31.62;36.58;99302.38;4891633;29;20590;-71
2022/07/07 08:40:19;;;;;;;29.20;15.87;;;;;;;31.67;36.30;99309.53;4908221;29;20547;-72
2022/07/07 08:42:45;;;;;;;31.05;15.38;;;;;;;31.95;36.07;99330.03;4911937;29;20048;-71
2022/07/07 08:45:11;;;;;;;39.67;16.58;;;;;;;32.05;35.49;99319.72;4925465;29;20052;-72
2022/07/07 08:47:38;;;;;;;34.47;15.50;;;;;;;32.30;35.24;99326.91;4924246;29;20044;-71
2022/07/07 08:50:06;;;;;;;29.58;15.98;;;;;;;32.44;34.50;99323.81;4908459;29;20512;-71
2022/07/07 08:52:33;;;;;;;34.22;16.30;;;;;;;32.39;35.20;99315.81;4911026;29;20044;-72
2022/07/07 08:55:01;;;;;;;28.08;16.50;;;;;;;32.28;35.03;99309.59;4908004;29;20326;-72
2022/07/07 08:57:28;;;;;;;30.88;15.80;;;;;;;32.26;34.45;99318.50;4905903;29;20293;-72
2022/07/07 08:59:56;;;;;;;26.67;15.95;;;;;;;32.44;34.90;99329.47;4904996;29;20463;-71
2022/07/07 09:02:23;;;;;;;29.73;15.63;;;;;;;32.85;34.16;99313.19;4889799;29;20096;-72
2022/07/07 09:04:49;;;;;;;34.30;16.75;;;;;;;33.02;33.98;99318.91;4894179;29;20063;-71
2022/07/07 09:07:17;;;;;;;35.75;16.08;;;;;;;32.53;34.40;99306.25;4892242;29;20501;-72
2022/07/07 09:09:45;;;;;;;26.52;16.05;;;;;;;32.20;35.41;99315.38;4904297;29;20055;-73
2022/07/07 09:12:13;;;;;;;28.52;16.55;;;;;;;32.02;35.34;99324.25;4907469;29;20059;-72
2022/07/07 09:14:41;;;;;;;27.60;16.15;;;;;;;31.88;35.14;99324.53;4907509;29;20428;-71
2022/07/07 09:17:17;;;;;;;27.90;15.65;;;;;;;32.13;34.75;99301.41;4912876;29;20059;-71
2022/07/07 09:19:56;;;;;;;35.70;16.42;;;;;;;33.04;34.23;99296.59;4912557;29;20159;-72
2022/07/07 09:22:40;;;;;;;33.42;16.23;;;;;;;33.49;32.76;99304.41;4911117;29;20052;-71
2022/07/07 09:25:08;;;;;;;29.48;14.95;;;;;;;32.87;34.00;99310.72;4566369;28;10000638;-72
2022/07/07 09:27:49;;;;;;;33.42;16.73;;;;;;;32.85;33.84;99306.72;4906504;29;20052;-72
2022/07/07 09:30:25;;;;;;;34.10;17.08;;;;;;;33.58;33.39;99300.91;4905642;29;20103;-73
2022/07/07 09:32:51;;;;;;;29.70;16.48;;;;;;;34.14;32.28;99301.84;4904472;29;20073;-72
2022/07/07 09:38:13;;;;;;;30.50;15.77;;;;;;;34.94;30.96;99307.94;4903646;29;20142;-72
2022/07/07 09:38:14;;;;;;;24.75;15.88;;;;;;;35.26;30.12;99300.44;4903971;29;20056;-72
2022/07/07 09:40:52;;;;;;;30.00;14.60;;;;;;;35.34;29.82;99301.00;4905117;29;20147;-72
2022/07/07 09:43:19;;;;;;;28.42;15.13;;;;;;;34.52;30.69;99314.53;4906806;29;20056;-72
2022/07/07 09:45:47;;;;;;;29.75;14.25;;;;;;;34.12;31.35;99301.50;4905579;29;20420;-72
2022/07/07 09:48:13;;;;;;;27.65;14.15;;;;;;;33.83;31.03;99312.81;4906945;29;20040;-72
2022/07/07 09:50:39;;;;;;;27.88;13.68;;;;;;;33.45;31.95;99309.38;4904486;29;20044;-73
2022/07/07 09:53:08;;;;;;;26.27;14.13;;;;;;;33.31;31.69;99292.72;4906371;29;20173;-73
2022/07/07 09:55:34;;;;;;;29.45;13.82;;;;;;;33.10;32.36;99297.69;4907392;29;20060;-72
2022/07/07 09:58:00;;;;;;;31.77;13.45;;;;;;;33.19;32.08;99306.34;4906731;29;20136;-73
2022/07/07 10:00:26;;;;;;;30.65;14.02;;;;;;;33.65;31.79;99295.06;4906362;29;20056;-72
2022/07/07 10:02:54;;;;;;;24.23;13.02;;;;;;;33.81;31.83;99304.78;4906885;29;20048;-71
2022/07/07 10:05:22;;;;;;;25.63;13.80;;;;;;;33.52;31.31;99302.72;4921278;29;20052;-72
2022/07/07 10:07:49;;;;;;;27.60;13.60;;;;;;;33.06;31.96;99308.28;4905385;29;20089;-74
2022/07/07 10:10:20;;;;;;;25.45;13.98;;;;;;;32.66;32.35;99318.47;4906489;29;20208;-72
2022/07/07 10:12:49;;;;;;;26.40;13.75;;;;;;;32.49;33.13;99305.53;4905120;29;20435;-73
2022/07/07 10:15:16;;;;;;;27.60;13.98;;;;;;;32.85;32.97;99316.03;4905951;29;20052;-73
2022/07/07 10:17:44;;;;;;;27.15;13.88;;;;;;;32.93;33.01;99314.63;4905278;29;20056;-72
2022/07/07 10:20:11;;;;;;;23.40;14.52;;;;;;;33.41;32.24;99314.31;4911870;29;20048;-72
2022/07/07 10:22:38;;;;;;;25.67;15.68;;;;;;;34.72;30.56;99317.13;4893801;29;20243;-73
2022/07/07 10:25:07;;;;;;;27.00;14.50;;;;;;;35.89;28.01;99299.88;4909431;29;20051;-72
2022/07/07 10:27:35;;;;;;;25.67;13.45;;;;;;;36.60;27.39;99332.63;4928014;29;20123;-73
2022/07/07 10:30:05;;;;;;;21.48;13.13;;;;;;;36.24;27.67;99319.78;4912416;29;20082;-73
2022/07/07 10:32:33;;;;;;;24.65;14.00;;;;;;;35.51;28.55;99320.72;4929532;29;20058;-73
2022/07/07 10:35:05;;;;;;;28.60;14.60;;;;;;;34.48;30.07;99333.66;4912884;29;20520;-73
2022/07/07 10:37:41;;;;;;;22.98;13.90;;;;;;;33.48;31.56;99305.63;4913434;29;20052;-73
2022/07/07 10:40:11;;;;;;;22.63;14.30;;;;;;;33.48;32.08;99314.13;4913128;29;20079;-73
2022/07/07 10:42:50;;;;;;;28.45;14.70;;;;;;;34.33;30.72;99314.22;4913350;29;20058;-73
2022/07/07 10:45:17;;;;;;;30.23;14.48;;;;;;;36.01;28.49;99313.25;4915707;29;20052;-72
2022/07/07 10:47:43;;;;;;;22.60;13.98;;;;;;;37.07;26.34;99335.69;4929524;29;20071;-71
2022/07/07 10:50:25;;;;;;;37.60;14.40;;;;;;;37.34;25.71;99319.94;4911296;29;20056;-73
2022/07/07 10:52:52;;;;;;;22.80;13.43;;;;;;;37.54;25.92;99315.88;4913683;29;20075;-73
2022/07/07 10:55:18;;;;;;;22.42;13.40;;;;;;;36.74;26.60;99316.25;4929086;29;20139;-72
2022/07/07 10:57:47;;;;;;;19.75;13.60;;;;;;;35.55;28.42;99338.47;4911592;29;20512;-73
2022/07/07 11:00:15;;;;;;;24.13;13.93;;;;;;;34.63;29.79;99302.84;4910489;29;20064;-73
2022/07/07 11:02:47;;;;;;;33.55;13.20;;;;;;;34.17;30.39;99309.44;4914159;29;20524;-73
2022/07/07 11:05:32;;;;;;;26.08;13.15;;;;;;;35.13;28.48;99308.19;4892941;29;20048;-73
2022/07/07 11:08:07;;;;;;;26.13;12.40;;;;;;;34.84;29.56;99309.91;4889822;29;20072;-72
2022/07/07 11:10:44;;;;;;;27.55;13.30;;;;;;;34.41;29.88;99291.34;4570083;28;9999747;-73
2022/07/07 11:13:16;;;;;;;26.40;13.45;;;;;;;35.15;28.84;99300.81;4909318;29;20139;-73
2022/07/07 11:15:42;;;;;;;22.80;13.30;;;;;;;36.33;27.01;99299.13;4907281;29;20520;-72
2022/07/07 11:18:10;;;;;;;25.77;12.88;;;;;;;36.90;26.55;99296.06;4907414;29;20056;-74
2022/07/07 11:20:53;;;;;;;18.67;12.77;;;;;;;37.75;24.84;99297.03;4890897;29;20153;-74